Time;durP1;ratioP1;P1;durP2;ratioP2;P2;SDS_P1;SDS_P2;PMS_P1;PMS_P2;Temp;Humidity;BMP_temperature;BMP_pressure;BME280_temperature;BME280_humidity;BME280_pressure;Samples;Min_cycle;Max_cycle;Signal;HPM_P1;HPM_P2
2022/04/10 00:01:18;;;;;;;4.93;1.17;;;3.60;99.90;;;;;;5089169;28;20549;-81
2022/04/10 00:03:47;;;;;;;3.00;1.40;;;3.50;99.90;;;;;;5087631;28;20422;-80
2022/04/10 00:06:12;;;;;;;4.43;1.30;;;3.50;99.90;;;;;;5088264;28;20181;-80
2022/04/10 00:08:38;;;;;;;8.00;1.03;;;3.60;99.90;;;;;;5091000;28;20532;-82
2022/04/10 00:11:03;;;;;;;5.33;1.13;;;3.70;99.90;;;;;;5074921;28;20168;-81
2022/04/10 00:13:29;;;;;;;5.27;1.43;;;3.80;99.90;;;;;;5074773;28;20169;-82
2022/04/10 00:15:54;;;;;;;3.37;1.10;;;3.70;99.90;;;;;;5074693;28;20220;-81
2022/04/10 00:18:20;;;;;;;3.37;1.17;;;3.70;99.90;;;;;;5074626;28;20218;-81
2022/04/10 00:20:45;;;;;;;7.03;1.90;;;3.70;99.90;;;;;;5074592;28;20512;-82
2022/04/10 00:23:11;;;;;;;5.37;1.33;;;3.80;99.90;;;;;;5074282;28;20172;-80
2022/04/10 00:25:37;;;;;;;3.63;1.57;;;3.80;99.90;;;;;;5074463;28;20222;-80
2022/04/10 00:28:03;;;;;;;8.83;1.30;;;3.70;99.90;;;;;;5074418;28;20415;-81
2022/04/10 00:30:29;;;;;;;3.80;2.10;;;3.60;99.90;;;;;;5074446;28;20422;-82
2022/04/10 00:32:54;;;;;;;4.10;1.83;;;3.60;99.90;;;;;;5082605;28;20173;-81
2022/04/10 00:35:20;;;;;;;3.97;1.40;;;3.40;99.90;;;;;;5072109;28;20209;-82
2022/04/10 00:37:45;;;;;;;4.20;1.27;;;3.40;99.90;;;;;;5080798;28;20178;-82
2022/04/10 00:40:11;;;;;;;5.23;2.33;;;3.30;99.90;;;;;;5074205;28;20177;-82
2022/04/10 00:42:41;;;;;;;7.73;2.07;;;3.30;99.90;;;;;;5074380;28;20191;-81
2022/04/10 00:45:09;;;;;;;5.40;1.13;;;3.20;99.90;;;;;;5074332;28;20172;-82
2022/04/10 00:47:34;;;;;;;1.57;0.87;;;3.30;99.90;;;;;;5074227;28;20486;-81
2022/04/10 00:50:03;;;;;;;6.33;1.17;;;3.30;99.90;;;;;;5075462;28;21161;-82
2022/04/10 00:52:30;;;;;;;4.77;0.97;;;3.40;99.90;;;;;;5092303;28;20475;-81
2022/04/10 00:54:55;;;;;;;2.93;1.40;;;3.40;99.90;;;;;;5093628;28;20559;-80
2022/04/10 00:57:23;;;;;;;6.70;1.80;;;3.40;99.90;;;;;;5094006;28;20462;-81
2022/04/10 00:59:48;;;;;;;4.20;1.30;;;3.30;99.90;;;;;;5093988;28;20621;-82
2022/04/10 01:02:13;;;;;;;3.67;1.03;;;3.20;99.90;;;;;;5085916;28;20457;-82
2022/04/10 01:04:39;;;;;;;4.80;1.03;;;3.20;99.90;;;;;;5093360;28;20224;-81
2022/04/10 01:07:06;;;;;;;6.57;1.43;;;3.20;99.90;;;;;;5087912;28;20541;-82
2022/04/10 01:09:32;;;;;;;5.77;1.13;;;3.20;99.90;;;;;;5092208;28;20462;-83
2022/04/10 01:11:59;;;;;;;8.13;1.07;;;3.10;99.90;;;;;;5092596;28;20441;-81
2022/04/10 01:14:25;;;;;;;6.30;1.23;;;3.10;99.90;;;;;;5093578;28;20482;-81
2022/04/10 01:16:51;;;;;;;3.40;3.10;;;3.20;99.90;;;;;;5093670;28;20416;-83
2022/04/10 01:19:17;;;;;;;6.67;1.60;;;3.30;99.90;;;;;;5093176;28;20415;-82
2022/04/10 01:21:46;;;;;;;2.73;0.77;;;3.40;99.90;;;;;;5092425;28;20772;-82
2022/04/10 01:24:12;;;;;;;9.63;2.27;;;3.40;99.90;;;;;;5091944;28;20456;-82
2022/04/10 01:26:39;;;;;;;4.27;1.53;;;3.40;99.90;;;;;;5093241;28;20408;-83
2022/04/10 01:29:07;;;;;;;3.40;1.00;;;3.40;99.90;;;;;;5093782;28;20953;-83
2022/04/10 01:31:38;;;;;;;8.70;1.30;;;3.30;99.90;;;;;;5094327;28;20408;-81
2022/04/10 01:34:24;;;;;;;6.67;0.90;;;3.30;99.90;;;;;;5093178;28;20425;-85
2022/04/10 01:36:49;;;;;;;7.10;1.67;;;3.20;99.90;;;;;;5093871;28;20789;-82
2022/04/10 01:39:15;;;;;;;4.93;1.97;;;3.20;99.90;;;;;;5093166;28;20414;-82
2022/04/10 01:41:41;;;;;;;3.80;0.80;;;3.20;99.90;;;;;;5094171;28;20649;-83
2022/04/10 01:44:09;;;;;;;6.00;1.30;;;3.20;99.90;;;;;;5093008;28;20624;-82
2022/04/10 01:46:35;;;;;;;5.00;1.20;;;3.10;99.90;;;;;;5094221;28;20463;-82
2022/04/10 01:49:02;;;;;;;7.70;1.37;;;3.00;99.90;;;;;;5093994;28;20405;-83
2022/04/10 01:51:28;;;;;;;5.93;2.10;;;3.00;99.90;;;;;;5092231;28;20423;-82
2022/04/10 01:53:56;;;;;;;1.80;0.97;;;3.00;99.90;;;;;;5092376;28;20419;-84
2022/04/10 01:56:22;;;;;;;9.30;1.50;;;3.10;99.90;;;;;;5093713;28;20210;-81
2022/04/10 01:58:52;;;;;;;4.10;0.97;;;3.20;99.90;;;;;;5093691;28;20395;-83
2022/04/10 02:01:18;;;;;;;1.67;0.80;;;3.20;99.90;;;;;;5093711;28;20460;-82
2022/04/10 02:03:46;;;;;;;5.90;1.00;;;3.30;99.90;;;;;;5092382;28;20416;-81
2022/04/10 02:06:12;;;;;;;3.97;0.80;;;3.20;99.90;;;;;;5093220;28;20415;-82
2022/04/10 02:08:41;;;;;;;3.43;1.30;;;3.30;99.90;;;;;;5093383;28;20810;-84
2022/04/10 02:11:17;;;;;;;3.03;1.40;;;3.30;99.90;;;;;;5093460;28;20495;-85
2022/04/10 02:13:43;;;;;;;2.20;0.80;;;3.40;99.90;;;;;;5092155;28;20852;-81
2022/04/10 02:16:19;;;;;;;1.80;0.73;;;3.40;99.90;;;;;;5093236;28;20518;-85
2022/04/10 02:18:46;;;;;;;6.53;1.10;;;3.40;99.90;;;;;;5093457;28;20406;-81
2022/04/10 02:21:12;;;;;;;1.57;0.60;;;3.30;99.90;;;;;;5093104;28;20764;-81
2022/04/10 02:23:41;;;;;;;2.70;1.40;;;3.20;99.90;;;;;;5093501;28;20417;-81
2022/04/10 02:26:10;;;;;;;3.10;1.30;;;3.20;99.90;;;;;;5093224;28;20418;-81
2022/04/10 02:28:36;;;;;;;3.50;0.53;;;3.20;99.90;;;;;;5093221;28;20407;-82
2022/04/10 02:31:01;;;;;;;2.03;0.70;;;3.30;99.90;;;;;;5093232;28;20420;-84
2022/04/10 02:33:27;;;;;;;1.03;0.70;;;3.30;99.90;;;;;;5092292;28;20184;-81
2022/04/10 02:35:52;;;;;;;5.03;1.47;;;3.30;99.90;;;;;;5092685;28;20640;-85
2022/04/10 02:38:18;;;;;;;3.70;1.00;;;3.30;99.90;;;;;;5093076;28;20166;-80
2022/04/10 02:40:44;;;;;;;8.40;2.10;;;3.30;99.90;;;;;;5093143;28;20179;-83
2022/04/10 02:43:10;;;;;;;2.50;1.17;;;3.20;99.90;;;;;;5093062;28;20649;-82
2022/04/10 02:45:37;;;;;;;3.30;1.23;;;3.10;99.90;;;;;;5092923;28;20411;-80
2022/04/10 02:48:02;;;;;;;2.43;1.20;;;3.00;99.90;;;;;;5092941;28;20506;-82
2022/04/10 02:50:28;;;;;;;2.50;1.10;;;2.80;99.90;;;;;;5092628;28;20518;-80
2022/04/10 02:52:54;;;;;;;8.60;0.87;;;2.70;99.90;;;;;;5092936;28;20651;-80
2022/04/10 02:55:20;;;;;;;4.07;1.77;;;2.60;99.90;;;;;;5092800;28;20569;-80
2022/04/10 02:57:45;;;;;;;9.00;2.00;;;2.50;99.90;;;;;;5092873;28;20409;-80
2022/04/10 03:00:11;;;;;;;4.00;1.63;;;2.40;99.90;;;;;;5092850;28;20229;-81
2022/04/10 03:02:40;;;;;;;7.10;2.30;;;2.40;99.90;;;;;;5092843;28;20174;-80
2022/04/10 03:05:07;;;;;;;10.90;3.03;;;2.40;99.90;;;;;;5092427;28;20511;-81
2022/04/10 03:07:33;;;;;;;4.10;1.70;;;2.30;99.90;;;;;;5092564;28;20867;-81
2022/04/10 03:09:58;;;;;;;3.97;2.00;;;2.40;99.90;;;;;;5092779;28;20471;-81
2022/04/10 03:12:24;;;;;;;8.60;1.70;;;2.40;99.90;;;;;;5092720;28;20171;-81
2022/04/10 03:14:49;;;;;;;3.70;1.63;;;2.40;99.90;;;;;;5092688;28;20231;-82
2022/04/10 03:17:15;;;;;;;3.83;1.33;;;2.30;99.90;;;;;;5092749;28;20186;-82
2022/04/10 03:19:40;;;;;;;3.67;1.70;;;2.40;99.90;;;;;;5092350;28;20641;-82
2022/04/10 03:22:06;;;;;;;3.27;1.37;;;2.40;99.90;;;;;;5092505;28;20633;-81
2022/04/10 03:24:32;;;;;;;5.50;2.40;;;2.40;99.90;;;;;;5092661;28;20195;-80
2022/04/10 03:26:57;;;;;;;4.17;2.00;;;2.40;99.90;;;;;;5092729;28;20231;-80
2022/04/10 03:29:23;;;;;;;2.67;1.50;;;2.50;99.90;;;;;;5092555;28;20176;-81
2022/04/10 03:31:48;;;;;;;4.13;1.87;;;2.50;99.90;;;;;;5092616;28;20547;-80
2022/04/10 03:34:14;;;;;;;3.97;1.90;;;2.60;99.90;;;;;;5090786;28;20174;-83
2022/04/10 03:36:40;;;;;;;4.30;2.20;;;2.60;99.90;;;;;;5092932;28;20177;-85
2022/04/10 03:39:05;;;;;;;5.30;1.50;;;2.60;99.90;;;;;;5092645;28;20538;-82
2022/04/10 03:41:31;;;;;;;3.90;2.07;;;2.70;99.90;;;;;;5092547;28;20259;-80
2022/04/10 03:43:56;;;;;;;2.63;0.83;;;2.70;99.90;;;;;;5092510;28;20252;-79
2022/04/10 03:46:22;;;;;;;2.17;1.30;;;2.70;99.90;;;;;;5092695;28;20168;-80
2022/04/10 03:48:47;;;;;;;3.17;1.43;;;2.60;99.90;;;;;;5092668;28;20181;-79
2022/04/10 03:51:13;;;;;;;8.00;2.00;;;2.60;99.90;;;;;;5092112;28;20185;-80
2022/04/10 03:53:38;;;;;;;3.20;1.47;;;2.60;99.90;;;;;;5092484;28;20216;-79
2022/04/10 03:56:05;;;;;;;3.70;1.30;;;2.50;99.90;;;;;;5092419;28;20280;-80
2022/04/10 03:58:30;;;;;;;4.23;1.67;;;2.50;99.90;;;;;;5094505;28;20172;-80
2022/04/10 04:00:56;;;;;;;4.57;1.90;;;2.50;99.90;;;;;;5096104;28;20408;-82
2022/04/10 04:03:22;;;;;;;3.63;0.87;;;2.50;99.90;;;;;;5096423;28;20181;-85
2022/04/10 04:05:47;;;;;;;2.40;0.70;;;2.40;99.90;;;;;;5095559;28;20176;-80
2022/04/10 04:08:14;;;;;;;2.73;1.43;;;2.30;99.90;;;;;;5095738;28;20465;-80
2022/04/10 04:10:40;;;;;;;3.93;1.20;;;2.20;99.90;;;;;;5094729;28;20175;-80
2022/04/10 04:13:06;;;;;;;2.00;0.87;;;2.10;99.90;;;;;;5095822;28;20410;-80
2022/04/10 04:15:31;;;;;;;5.13;1.23;;;2.10;99.90;;;;;;5095757;28;20217;-80
2022/04/10 04:17:57;;;;;;;6.80;1.37;;;2.00;99.90;;;;;;5096189;28;20184;-80
2022/04/10 04:20:22;;;;;;;5.70;1.40;;;2.00;99.90;;;;;;5095404;28;20167;-80
2022/04/10 04:22:48;;;;;;;6.03;1.00;;;2.00;99.90;;;;;;5095504;28;20173;-81
2022/04/10 04:25:14;;;;;;;5.00;1.47;;;1.90;99.90;;;;;;5095687;28;20537;-81
2022/04/10 04:27:40;;;;;;;8.47;1.50;;;1.90;99.90;;;;;;5094354;28;20407;-81
2022/04/10 04:30:07;;;;;;;3.80;1.80;;;1.90;99.90;;;;;;5095190;28;20488;-82
2022/04/10 04:32:32;;;;;;;4.37;1.80;;;2.00;99.90;;;;;;5095554;28;20172;-80
2022/04/10 04:34:58;;;;;;;4.00;1.90;;;2.00;99.90;;;;;;5095137;28;20454;-80
2022/04/10 04:37:23;;;;;;;6.37;2.03;;;2.20;99.90;;;;;;5095451;28;20176;-82
2022/04/10 04:39:49;;;;;;;5.57;1.60;;;2.30;99.90;;;;;;5095290;28;20164;-84
2022/04/10 04:42:14;;;;;;;10.13;1.83;;;2.50;99.90;;;;;;5095297;28;20176;-80
2022/04/10 04:44:40;;;;;;;7.10;2.33;;;2.50;99.90;;;;;;5095283;28;20181;-80
2022/04/10 04:47:06;;;;;;;2.40;1.40;;;2.60;99.90;;;;;;5095241;28;20226;-83
2022/04/10 04:49:31;;;;;;;8.07;2.13;;;2.60;99.90;;;;;;5094814;28;20178;-81
2022/04/10 04:51:57;;;;;;;7.43;2.47;;;2.60;99.90;;;;;;5095013;28;20165;-80
2022/04/10 04:54:22;;;;;;;8.37;1.83;;;2.60;99.90;;;;;;5093484;28;20198;-79
2022/04/10 04:56:48;;;;;;;10.33;2.70;;;2.60;99.90;;;;;;5095068;28;20209;-79
2022/04/10 04:59:14;;;;;;;8.50;2.23;;;2.70;99.90;;;;;;5094976;28;20628;-79
2022/04/10 05:01:43;;;;;;;5.80;2.23;;;2.70;99.90;;;;;;5095140;28;20210;-85
2022/04/10 05:04:09;;;;;;;14.40;1.90;;;2.80;99.90;;;;;;5094662;28;20442;-80
2022/04/10 05:06:35;;;;;;;5.63;1.47;;;2.80;99.90;;;;;;5095095;28;20417;-83
2022/04/10 05:09:01;;;;;;;14.30;3.73;;;2.80;99.90;;;;;;5093558;28;20458;-81
2022/04/10 05:11:26;;;;;;;12.10;2.53;;;2.80;99.90;;;;;;5094424;28;20454;-79
2022/04/10 05:13:52;;;;;;;5.17;2.10;;;2.80;99.90;;;;;;5094661;28;20172;-79
2022/04/10 05:16:18;;;;;;;5.27;1.43;;;3.00;99.90;;;;;;5093402;28;20669;-81
2022/04/10 05:18:44;;;;;;;7.87;1.70;;;3.00;99.90;;;;;;5094273;28;20247;-80
2022/04/10 05:21:09;;;;;;;6.93;1.77;;;3.10;99.90;;;;;;5093161;28;20449;-80
2022/04/10 05:23:35;;;;;;;5.30;1.50;;;3.10;99.90;;;;;;5094385;28;20175;-80
2022/04/10 05:26:01;;;;;;;8.67;1.70;;;3.10;99.90;;;;;;5094275;28;20187;-80
2022/04/10 05:28:26;;;;;;;4.83;1.90;;;3.00;99.90;;;;;;5094321;28;20176;-80
2022/04/10 05:30:52;;;;;;;3.00;1.50;;;3.00;99.90;;;;;;5094387;28;20176;-80
2022/04/10 05:33:18;;;;;;;6.10;1.70;;;3.10;99.90;;;;;;5093036;28;20241;-85
2022/04/10 05:35:44;;;;;;;4.73;1.03;;;3.10;99.90;;;;;;5093913;28;20224;-82
2022/04/10 05:38:09;;;;;;;6.60;1.80;;;3.20;99.90;;;;;;5094152;28;20680;-80
2022/04/10 05:40:35;;;;;;;10.43;2.40;;;3.40;99.90;;;;;;5094089;28;20172;-80
2022/04/10 05:43:00;;;;;;;7.47;2.20;;;3.40;99.90;;;;;;5094048;28;20199;-86
2022/04/10 05:45:26;;;;;;;6.47;1.90;;;4.00;99.90;;;;;;5094065;28;20174;-84
2022/04/10 05:47:52;;;;;;;6.67;2.60;;;4.80;99.90;;;;;;5092864;28;20175;-83
2022/04/10 05:50:17;;;;;;;10.20;2.50;;;5.40;99.90;;;;;;5093615;28;20221;-80
2022/04/10 05:52:47;;;;;;;9.20;2.40;;;5.90;58.80;;;;;;5093901;28;20609;-83
2022/04/10 05:55:15;;;;;;;4.47;1.83;;;5.90;1.00;;;;;;5093616;28;20254;-81
2022/04/10 05:57:41;;;;;;;4.27;1.67;;;5.40;1.00;;;;;;5093692;28;20915;-80
2022/04/10 06:00:13;;;;;;;7.57;1.27;;;4.60;99.90;;;;;;5093599;28;20414;-83
2022/04/10 06:02:39;;;;;;;7.77;2.10;;;6.10;24.50;;;;;;5093672;28;20406;-83
2022/04/10 06:05:06;;;;;;;6.43;1.93;;;6.60;1.00;;;;;;5093149;28;20429;-81
2022/04/10 06:07:32;;;;;;;6.70;0.73;;;6.70;1.00;;;;;;5093423;28;20441;-83
2022/04/10 06:09:58;;;;;;;4.60;1.23;;;6.90;93.10;;;;;;5092330;28;20434;-83
2022/04/10 06:12:24;;;;;;;3.23;1.30;;;5.30;1.00;;;;;;5093638;28;20507;-81
2022/04/10 06:14:50;;;;;;;3.70;1.03;;;4.60;99.90;;;;;;5093316;28;20478;-81
2022/04/10 06:17:16;;;;;;;6.27;1.80;;;4.20;99.90;;;;;;5093416;28;20421;-83
2022/04/10 06:19:42;;;;;;;11.93;0.90;;;4.20;99.90;;;;;;5092939;28;20209;-83
2022/04/10 06:22:08;;;;;;;5.33;1.73;;;4.10;99.90;;;;;;5093078;28;20419;-85
2022/04/10 06:24:34;;;;;;;3.97;1.07;;;4.10;99.90;;;;;;5093385;28;20160;-80
2022/04/10 06:27:00;;;;;;;5.20;1.10;;;4.30;99.90;;;;;;5093405;28;20941;-83
2022/04/10 06:29:26;;;;;;;4.03;1.40;;;4.50;99.90;;;;;;5093350;28;20410;-81
2022/04/10 06:31:52;;;;;;;10.43;1.90;;;4.60;99.90;;;;;;5093222;28;20184;-81
2022/04/10 06:34:17;;;;;;;4.83;1.93;;;7.40;1.00;;;;;;5092681;28;20767;-81
2022/04/10 06:36:43;;;;;;;9.37;1.37;;;9.10;1.00;;;;;;5093086;28;20169;-82
2022/04/10 06:39:09;;;;;;;3.00;0.97;;;9.70;1.00;;;;;;5093166;28;20202;-84
2022/04/10 06:41:35;;;;;;;8.37;0.63;;;9.90;1.00;;;;;;5093092;28;20181;-84
2022/04/10 06:44:01;;;;;;;6.23;1.03;;;8.30;99.90;;;;;;5093058;28;20779;-80
2022/04/10 06:46:27;;;;;;;5.60;1.23;;;6.70;1.00;;;;;;5093091;28;20186;-80
2022/04/10 06:48:53;;;;;;;7.80;1.27;;;5.90;1.00;;;;;;5092687;28;20408;-82
2022/04/10 06:51:19;;;;;;;6.50;1.73;;;5.50;55.10;;;;;;5092947;28;20617;-81
2022/04/10 06:53:44;;;;;;;6.90;1.23;;;5.10;99.90;;;;;;5093072;28;20408;-80
2022/04/10 06:56:10;;;;;;;10.70;1.67;;;4.80;99.90;;;;;;5092847;28;20576;-79
2022/04/10 06:58:35;;;;;;;6.27;0.90;;;4.60;99.90;;;;;;5092823;28;20302;-79
2022/04/10 07:01:01;;;;;;;4.43;1.17;;;4.70;99.90;;;;;;5092766;28;20320;-79
2022/04/10 07:03:27;;;;;;;11.70;3.30;;;4.80;99.90;;;;;;5092808;28;20191;-80
2022/04/10 07:05:53;;;;;;;5.93;1.93;;;4.80;99.90;;;;;;5093076;28;20418;-79
2022/04/10 07:08:21;;;;;;;4.50;1.50;;;4.80;99.90;;;;;;5093310;28;20219;-79
2022/04/10 07:10:47;;;;;;;6.10;1.23;;;4.80;99.90;;;;;;5093109;28;20274;-78
2022/04/10 07:13:17;;;;;;;8.53;1.97;;;5.20;99.90;;;;;;5092615;28;20532;-80
2022/04/10 07:15:44;;;;;;;8.53;1.40;;;7.00;1.00;;;;;;5091485;28;20212;-79
2022/04/10 07:18:09;;;;;;;7.57;1.13;;;7.40;1.00;;;;;;5073129;28;20403;-80
2022/04/10 07:20:35;;;;;;;5.40;1.00;;;7.80;99.90;;;;;;5073292;28;20877;-79
2022/04/10 07:25:44;;;;;;;3.80;0.87;;;9.70;99.90;;;;;;5086301;28;20612;-79
2022/04/10 07:28:10;;;;;;;5.00;0.60;;;11.30;1.00;;;;;;5093283;28;20423;-79
2022/04/10 07:30:35;;;;;;;6.20;1.30;;;10.40;1.00;;;;;;5092787;28;20270;-79
2022/04/10 07:33:01;;;;;;;8.03;1.07;;;10.30;1.00;;;;;;5094802;28;20223;-82
2022/04/10 07:35:27;;;;;;;9.03;2.20;;;11.20;99.90;;;;;;5097400;28;20225;-79
2022/04/10 07:37:53;;;;;;;5.27;1.83;;;9.60;1.00;;;;;;5097530;28;20176;-79
2022/04/10 07:40:21;;;;;;;6.47;1.43;;;8.90;99.90;;;;;;5096965;28;20181;-81
2022/04/10 07:42:47;;;;;;;5.13;1.63;;;8.80;99.90;;;;;;5097098;28;20168;-80
2022/04/10 07:47:25;;;;;;;4.93;1.30;;;9.30;96.40;;;;;;5097044;28;20502;-79
2022/04/10 07:47:59;;;;;;;3.60;1.07;;;10.90;1.00;;;;;;5096862;28;20175;-85
2022/04/10 07:50:29;;;;;;;4.77;0.47;;;12.20;99.90;;;;;;5096341;28;20473;-84
2022/04/10 07:52:55;;;;;;;3.10;0.77;;;11.40;99.90;;;;;;5096679;28;20758;-78
2022/04/10 07:55:21;;;;;;;3.23;0.77;;;13.20;99.90;;;;;;5095122;28;20473;-79
2022/04/10 07:57:47;;;;;;;1.93;0.30;;;12.50;99.90;;;;;;5096486;28;20433;-78
2022/04/10 08:00:14;;;;;;;3.53;0.83;;;13.90;99.90;;;;;;5096518;28;20439;-79
2022/04/10 08:02:42;;;;;;;5.13;0.60;;;14.20;99.90;;;;;;5096600;28;20412;-79
2022/04/10 08:05:07;;;;;;;6.17;0.73;;;13.30;99.90;;;;;;5095791;28;20780;-78
2022/04/10 08:07:33;;;;;;;7.97;0.60;;;12.10;99.90;;;;;;5095951;28;20546;-79
2022/04/10 08:09:59;;;;;;;4.33;0.50;;;14.40;99.90;;;;;;5096648;28;20179;-86
2022/04/10 08:12:25;;;;;;;4.00;0.50;;;13.40;99.90;;;;;;5095016;28;20214;-80
2022/04/10 08:14:50;;;;;;;6.80;0.80;;;12.80;99.90;;;;;;5096157;28;20635;-79
2022/04/10 08:17:16;;;;;;;4.73;0.93;;;14.70;99.90;;;;;;5096225;28;20448;-81
2022/04/10 08:19:42;;;;;;;7.37;1.17;;;13.80;99.90;;;;;;5096168;28;20171;-80
2022/04/10 08:22:07;;;;;;;2.93;0.83;;;11.80;99.90;;;;;;5096073;28;20171;-81
2022/04/10 08:24:33;;;;;;;4.00;1.03;;;10.10;1.00;;;;;;5095581;28;20166;-84
2022/04/10 08:26:59;;;;;;;7.23;1.20;;;8.90;99.90;;;;;;5095497;28;20194;-80
2022/04/10 08:29:25;;;;;;;5.33;1.03;;;8.20;1.00;;;;;;5095416;28;20190;-84
2022/04/10 08:31:51;;;;;;;5.93;0.90;;;7.70;99.90;;;;;;5094154;28;20428;-79
2022/04/10 08:34:16;;;;;;;11.57;1.30;;;7.00;1.00;;;;;;5093679;28;20440;-80
2022/04/10 08:36:42;;;;;;;9.13;1.57;;;6.40;22.10;;;;;;5095347;28;20171;-83
2022/04/10 08:39:07;;;;;;;4.20;0.70;;;6.20;99.90;;;;;;5095201;28;20185;-80
2022/04/10 08:41:36;;;;;;;4.63;2.73;;;6.00;99.90;;;;;;5093750;28;20175;-81
2022/04/10 08:44:02;;;;;;;2.50;0.70;;;6.40;34.60;;;;;;5094931;28;20169;-80
2022/04/10 08:46:29;;;;;;;4.13;0.87;;;10.00;1.00;;;;;;5095054;28;20419;-80
2022/04/10 08:48:57;;;;;;;2.47;0.50;;;12.10;1.00;;;;;;5094572;28;20421;-80
2022/04/10 08:51:30;;;;;;;3.97;0.90;;;12.90;99.90;;;;;;5094887;28;20421;-79
2022/04/10 08:53:56;;;;;;;3.13;0.37;;;12.10;99.90;;;;;;5093791;28;20452;-79
2022/04/10 08:56:23;;;;;;;3.07;0.77;;;12.40;99.90;;;;;;5093389;28;20470;-80
2022/04/10 08:58:49;;;;;;;2.23;0.40;;;13.60;99.90;;;;;;5093664;28;20913;-84
2022/04/10 09:01:19;;;;;;;5.23;0.90;;;14.00;99.90;;;;;;5094400;28;20971;-78
2022/04/10 09:03:46;;;;;;;6.00;0.80;;;14.60;99.90;;;;;;5094203;28;20415;-80
2022/04/10 09:06:12;;;;;;;5.10;0.93;;;14.40;99.90;;;;;;5094433;28;20456;-79
2022/04/10 09:08:38;;;;;;;3.53;0.60;;;15.00;99.90;;;;;;5094219;28;20468;-84
2022/04/10 09:11:08;;;;;;;3.37;0.87;;;14.50;99.90;;;;;;5094459;28;20524;-83
2022/04/10 09:13:48;;;;;;;3.17;0.30;;;14.70;99.90;;;;;;5094260;28;20405;-83
2022/04/10 09:16:18;;;;;;;2.97;0.37;;;15.70;99.90;;;;;;5094278;28;20474;-84
2022/04/10 09:19:10;;;;;;;4.97;0.73;;;15.20;92.40;;;;;;5093830;28;20419;-84
2022/04/10 09:21:38;;;;;;;1.80;0.40;;;15.00;78.90;;;;;;5092904;28;20512;-83
2022/04/10 09:24:15;;;;;;;5.17;0.73;;;15.60;79.50;;;;;;5092733;28;20741;-80
2022/04/10 09:26:48;;;;;;;3.57;0.37;;;15.80;68.10;;;;;;5093936;28;20409;-85
2022/04/10 09:29:18;;;;;;;4.70;0.90;;;16.00;59.00;;;;;;5092635;28;20898;-85
2022/04/10 09:31:44;;;;;;;2.23;0.60;;;16.20;56.10;;;;;;5093918;28;20416;-87
2022/04/10 09:34:15;;;;;;;2.43;0.27;;;16.60;52.20;;;;;;5093453;28;20889;-82
2022/04/10 09:36:43;;;;;;;4.93;1.20;;;15.80;44.40;;;;;;5093814;28;20429;-80
2022/04/10 09:39:31;;;;;;;5.57;0.77;;;16.40;46.70;;;;;;5108916;28;20415;-80
2022/04/10 09:42:08;;;;;;;4.87;0.40;;;16.70;45.20;;;;;;5095216;28;20859;-83
2022/04/10 09:44:41;;;;;;;4.17;0.80;;;15.30;32.90;;;;;;5098426;28;20409;-85
2022/04/10 09:47:08;;;;;;;5.37;1.00;;;15.60;37.60;;;;;;5097025;28;20417;-81
2022/04/10 09:49:36;;;;;;;5.10;0.90;;;13.80;25.50;;;;;;5092876;28;20408;-81
2022/04/10 09:52:05;;;;;;;2.90;0.50;;;13.90;29.10;;;;;;5093761;28;20423;-81
2022/04/10 09:54:44;;;;;;;4.83;1.40;;;15.80;41.20;;;;;;5092829;28;20402;-83
2022/04/10 09:57:18;;;;;;;4.37;0.63;;;14.10;22.30;;;;;;5093040;28;20478;-82
2022/04/10 09:59:45;;;;;;;4.27;1.03;;;12.90;27.20;;;;;;5093370;28;20463;-81
2022/04/10 10:02:12;;;;;;;5.33;1.23;;;12.70;34.30;;;;;;5093164;28;20834;-82
2022/04/10 10:04:39;;;;;;;5.40;0.53;;;12.50;44.80;;;;;;5092921;28;20495;-82
2022/04/10 10:07:15;;;;;;;3.13;0.83;;;13.70;63.30;;;;;;5093432;28;20431;-79
2022/04/10 10:09:41;;;;;;;3.87;0.60;;;15.00;48.90;;;;;;5093028;28;20450;-79
2022/04/10 10:12:07;;;;;;;3.93;1.60;;;15.00;43.60;;;;;;5093007;28;20494;-79
2022/04/10 10:14:38;;;;;;;2.37;0.43;;;16.00;41.40;;;;;;5092932;28;20172;-81
2022/04/10 10:17:06;;;;;;;4.10;0.40;;;16.20;36.40;;;;;;5093213;28;20408;-81
2022/04/10 10:19:38;;;;;;;5.80;0.70;;;16.30;32.10;;;;;;5092490;28;20457;-80
2022/04/10 10:22:08;;;;;;;5.27;0.50;;;16.30;33.00;;;;;;5092940;28;20932;-80
2022/04/10 10:24:52;;;;;;;4.53;0.60;;;16.70;29.30;;;;;;5093075;28;20407;-82
2022/04/10 10:27:46;;;;;;;4.93;1.90;;;17.30;33.10;;;;;;5092514;28;20599;-80
2022/04/10 10:30:38;;;;;;;3.07;0.43;;;16.60;25.30;;;;;;5092998;28;20410;-81
2022/04/10 10:33:21;;;;;;;3.90;0.43;;;16.10;21.40;;;;;;5092579;28;20500;-81
2022/04/10 10:35:52;;;;;;;3.67;0.77;;;16.50;22.30;;;;;;5092848;28;20472;-80
2022/04/10 10:38:30;;;;;;;2.37;0.47;;;15.60;14.80;;;;;;5092807;28;20432;-79
2022/04/10 10:41:18;;;;;;;3.53;0.43;;;16.00;23.50;;;;;;5092749;28;20419;-80
2022/04/10 10:43:44;;;;;;;5.33;1.00;;;16.70;23.60;;;;;;5092658;28;20424;-80
2022/04/10 10:46:32;;;;;;;4.77;0.57;;;16.40;20.10;;;;;;5092614;28;20499;-79
2022/04/10 10:49:19;;;;;;;3.20;0.70;;;16.50;17.00;;;;;;5092334;28;20428;-80
2022/04/10 10:51:46;;;;;;;5.43;0.97;;;16.70;16.60;;;;;;5092754;28;20484;-81
2022/04/10 10:54:21;;;;;;;4.03;0.40;;;16.00;11.30;;;;;;5092850;28;20885;-79
2022/04/10 10:56:50;;;;;;;4.70;1.00;;;15.50;8.20;;;;;;5092854;28;20419;-81
2022/04/10 10:59:26;;;;;;;7.47;0.63;;;14.20;1.00;;;;;;5092401;28;20391;-80
2022/04/10 11:01:52;;;;;;;2.40;0.60;;;13.90;1.80;;;;;;5091375;28;20792;-80
2022/04/10 11:04:20;;;;;;;1.33;0.37;;;14.70;7.70;;;;;;5092051;28;20986;-81
2022/04/10 11:06:50;;;;;;;3.43;0.30;;;15.00;9.70;;;;;;5093233;28;20835;-80
2022/04/10 11:09:27;;;;;;;3.60;0.77;;;15.60;11.60;;;;;;5096139;28;20547;-82
2022/04/10 11:11:53;;;;;;;3.50;0.40;;;15.30;9.40;;;;;;5096540;28;20420;-80
2022/04/10 11:14:56;;;;;;;3.07;0.43;;;13.80;1.00;;;;;;5095435;28;20422;-83
2022/04/10 11:17:30;;;;;;;3.90;0.53;;;11.90;1.00;;;;;;5084674;28;20276;-81
2022/04/10 11:20:01;;;;;;;2.50;0.20;;;11.00;27.20;;;;;;5096237;28;20808;-81
2022/04/10 11:22:37;;;;;;;2.00;0.50;;;10.10;99.90;;;;;;5096505;28;20891;-80
2022/04/10 11:25:07;;;;;;;1.17;0.37;;;12.40;99.90;;;;;;5096405;28;20813;-81
2022/04/10 11:28:03;;;;;;;1.70;0.30;;;13.70;99.90;;;;;;5096246;28;20420;-80
2022/04/10 11:30:37;;;;;;;6.33;0.40;;;14.30;70.30;;;;;;5095987;28;20761;-80
2022/04/10 11:33:05;;;;;;;5.23;0.50;;;14.90;54.10;;;;;;5095805;28;20824;-79
2022/04/10 11:35:32;;;;;;;3.20;0.73;;;14.70;39.60;;;;;;5096027;28;20462;-80
2022/04/10 11:38:05;;;;;;;4.77;1.07;;;14.80;43.40;;;;;;5096534;28;20422;-82
2022/04/10 11:40:37;;;;;;;1.63;0.23;;;15.30;38.10;;;;;;5094764;28;20443;-80
2022/04/10 11:43:08;;;;;;;5.93;0.40;;;14.50;26.70;;;;;;5094484;28;20489;-79
2022/04/10 11:45:35;;;;;;;2.50;0.83;;;13.20;24.60;;;;;;5095809;28;20403;-80
2022/04/10 11:48:04;;;;;;;2.23;0.40;;;11.80;76.70;;;;;;5095523;28;20412;-80
2022/04/10 11:50:30;;;;;;;3.10;0.30;;;9.10;1.00;;;;;;5085050;28;20423;-80
2022/04/10 11:53:00;;;;;;;4.70;0.20;;;8.50;1.00;;;;;;5082397;28;20996;-79
2022/04/10 11:55:45;;;;;;;3.80;0.63;;;8.20;99.90;;;;;;5080930;28;20621;-80
2022/04/10 11:58:13;;;;;;;2.80;0.40;;;8.10;99.90;;;;;;5075600;28;20396;-79
2022/04/10 12:00:44;;;;;;;5.93;1.07;;;8.40;1.00;;;;;;5074263;28;20911;-81
2022/04/10 12:03:09;;;;;;;8.07;0.60;;;8.20;99.90;;;;;;5087956;28;20417;-80
2022/04/10 12:05:36;;;;;;;5.67;0.93;;;8.50;1.00;;;;;;5093043;28;20960;-78
2022/04/10 12:08:03;;;;;;;2.83;0.30;;;8.90;1.00;;;;;;5093807;28;20226;-81
2022/04/10 12:10:29;;;;;;;5.10;0.80;;;10.80;1.00;;;;;;5095577;28;20507;-78
2022/04/10 12:12:56;;;;;;;3.47;0.40;;;12.50;99.90;;;;;;5095483;28;20840;-79
2022/04/10 12:15:21;;;;;;;4.77;0.43;;;13.40;99.90;;;;;;5094593;28;20474;-80
2022/04/10 12:17:48;;;;;;;2.60;0.57;;;13.70;99.90;;;;;;5094910;28;20504;-82
2022/04/10 12:20:14;;;;;;;4.10;1.17;;;14.20;99.90;;;;;;5094683;28;20195;-80
2022/04/10 12:22:43;;;;;;;4.53;1.00;;;14.60;99.90;;;;;;5095236;28;20977;-79
2022/04/10 12:25:10;;;;;;;2.67;0.43;;;15.10;99.90;;;;;;5095279;28;20402;-80
2022/04/10 12:27:36;;;;;;;5.10;0.70;;;15.60;99.90;;;;;;5094788;28;20421;-81
2022/04/10 12:30:08;;;;;;;6.63;1.40;;;14.60;60.10;;;;;;5094971;28;20999;-80
2022/04/10 12:32:35;;;;;;;3.83;0.57;;;14.80;77.30;;;;;;5094643;28;20223;-79
2022/04/10 12:35:09;;;;;;;5.50;1.23;;;15.40;77.30;;;;;;5093640;28;20474;-80
2022/04/10 12:37:35;;;;;;;3.57;0.90;;;15.90;43.60;;;;;;5094901;28;20177;-79
2022/04/10 12:40:01;;;;;;;4.23;0.70;;;16.60;29.50;;;;;;5093698;28;20425;-79
2022/04/10 12:42:37;;;;;;;2.90;0.80;;;14.90;8.10;;;;;;5094899;28;20262;-82
2022/04/10 12:45:07;;;;;;;1.83;0.90;;;13.10;1.00;;;;;;5093603;28;20463;-79
2022/04/10 12:47:44;;;;;;;5.90;0.97;;;13.20;22.80;;;;;;5093214;28;20451;-81
2022/04/10 12:50:13;;;;;;;5.03;0.87;;;14.70;39.50;;;;;;5094777;28;20937;-80
2022/04/10 12:52:39;;;;;;;4.57;0.40;;;14.50;20.20;;;;;;5094751;28;20489;-80
2022/04/10 12:55:15;;;;;;;4.60;0.97;;;13.60;12.60;;;;;;5094709;28;20492;-80
2022/04/10 12:57:43;;;;;;;6.13;0.97;;;12.80;5.30;;;;;;5093499;28;20427;-79
2022/04/10 13:00:22;;;;;;;2.93;0.70;;;11.90;1.90;;;;;;5094689;28;20465;-81
2022/04/10 13:02:48;;;;;;;3.07;0.47;;;11.00;1.00;;;;;;5093060;28;20425;-80